Time;durP1;ratioP1;P1;durP2;ratioP2;P2;SDS_P1;SDS_P2;PMS_P1;PMS_P2;Temp;Humidity;BMP_temperature;BMP_pressure;BME280_temperature;BME280_humidity;BME280_pressure;Samples;Min_cycle;Max_cycle;Signal;HPM_P1;HPM_P2
2023/10/05 00:02:12;;;;;;;6.35;1.77;;;;;;;19.77;55.34;102342.78;5011400;28;20126;-73
2023/10/05 00:04:42;;;;;;;8.85;1.83;;;;;;;20.06;55.07;102352.47;5012031;28;20038;-74
2023/10/05 00:07:23;;;;;;;6.43;2.00;;;;;;;20.07;54.85;102351.53;5013210;28;20030;-73
2023/10/05 00:09:49;;;;;;;6.03;1.90;;;;;;;20.18;54.67;102342.72;5013599;28;20427;-74
2023/10/05 00:12:20;;;;;;;7.78;1.95;;;;;;;20.22;54.85;102357.69;5012516;28;20383;-75
2023/10/05 00:15:04;;;;;;;7.22;2.00;;;;;;;19.74;55.92;102352.50;5012972;28;20034;-73
2023/10/05 00:17:38;;;;;;;10.23;2.10;;;;;;;20.06;55.57;102345.41;5013319;28;20037;-74
2023/10/05 00:20:10;;;;;;;9.88;2.38;;;;;;;20.03;55.73;102345.38;5010943;28;20518;-74
2023/10/05 00:22:36;;;;;;;6.28;1.70;;;;;;;20.09;56.15;102350.66;5013342;28;20040;-74
2023/10/05 00:25:14;;;;;;;11.77;2.25;;;;;;;19.89;56.30;102355.13;5012141;28;20073;-73
2023/10/05 00:27:39;;;;;;;8.73;2.20;;;;;;;19.87;59.30;102350.72;5010420;28;20080;-74
2023/10/05 00:30:16;;;;;;;9.35;2.05;;;;;;;19.56;58.35;102355.16;5012758;28;20042;-74
2023/10/05 00:32:46;;;;;;;10.95;2.20;;;;;;;19.96;58.00;102353.34;5010909;28;20034;-74
2023/10/05 00:35:18;;;;;;;10.05;1.90;;;;;;;19.80;58.07;102341.91;5012813;28;20048;-74
2023/10/05 00:37:44;;;;;;;12.05;1.90;;;;;;;19.88;58.24;102347.19;5011988;28;20033;-73
2023/10/05 00:40:12;;;;;;;12.45;2.30;;;;;;;19.51;58.58;102355.16;5011682;28;20163;-74
2023/10/05 00:42:38;;;;;;;7.70;2.15;;;;;;;19.76;57.15;102348.94;5019945;28;20034;-74
2023/10/05 00:45:11;;;;;;;10.75;2.28;;;;;;;19.72;56.36;102360.44;5024130;28;20112;-74
2023/10/05 00:47:37;;;;;;;14.52;2.53;;;;;;;19.88;55.62;102356.03;5028211;28;20099;-74
2023/10/05 00:50:04;;;;;;;12.60;2.40;;;;;;;19.43;55.87;102368.34;5026813;28;20061;-74
2023/10/05 00:52:30;;;;;;;10.57;2.38;;;;;;;19.72;55.00;102354.25;5027780;28;20036;-74
2023/10/05 00:55:03;;;;;;;8.45;2.20;;;;;;;19.49;55.98;102363.97;5013664;28;20026;-73
2023/10/05 00:57:29;;;;;;;10.90;2.20;;;;;;;19.19;55.57;102368.31;5011152;28;20041;-74
2023/10/05 01:03:04;;;;;;;;;;;;;;;19.66;54.20;102355.16;5012395;28;20657;-74
2023/10/05 01:05:34;;;;;;;10.20;2.17;;;;;;;19.75;54.01;102349.88;5011493;28;19913;-73
2023/10/05 01:08:04;;;;;;;10.63;1.88;;;;;;;19.87;54.84;102350.72;5010198;28;20034;-74
2023/10/05 01:10:42;;;;;;;7.63;2.17;;;;;;;19.91;54.55;102347.19;5012029;28;20028;-74
2023/10/05 01:13:30;;;;;;;8.80;2.30;;;;;;;19.59;55.33;102347.19;5011552;28;20037;-74
2023/10/05 01:15:57;;;;;;;11.40;2.10;;;;;;;19.72;54.80;102333.09;5009945;28;20030;-74
2023/10/05 01:18:31;;;;;;;10.48;2.30;;;;;;;19.53;54.70;102342.81;5011961;28;20034;-74
2023/10/05 01:21:02;;;;;;;14.02;2.45;;;;;;;19.49;55.00;102338.41;5015117;28;20133;-74
2023/10/05 01:23:38;;;;;;;10.02;2.25;;;;;;;19.66;54.42;102336.63;5010268;28;20038;-74
2023/10/05 01:26:03;;;;;;;9.15;2.08;;;;;;;19.66;54.50;102341.91;5009413;28;20034;-74
2023/10/05 01:28:29;;;;;;;14.65;2.22;;;;;;;19.73;54.38;102348.09;5011952;28;20041;-75
2023/10/05 01:30:55;;;;;;;10.90;2.22;;;;;;;19.83;53.77;102337.47;5011203;28;20490;-73
2023/10/05 01:33:25;;;;;;;7.68;2.08;;;;;;;19.92;53.19;102338.34;5011523;28;20544;-75
2023/10/05 01:35:54;;;;;;;11.63;2.38;;;;;;;19.74;54.28;102339.28;5011401;28;20053;-74
2023/10/05 01:38:20;;;;;;;7.72;2.25;;;;;;;19.73;53.03;102332.22;5011433;28;20491;-74
2023/10/05 01:40:54;;;;;;;9.07;2.15;;;;;;;19.74;53.37;102344.56;5011509;28;20037;-73
2023/10/05 01:43:19;;;;;;;;;;;;;;;19.70;53.84;102345.47;5011056;28;20034;-73
2023/10/05 01:45:48;;;;;;;9.38;2.05;;;;;;;19.66;53.25;102343.69;5010031;28;20355;-74
2023/10/05 01:48:18;;;;;;;8.20;1.85;;;;;;;19.72;53.22;102344.56;5010679;28;20121;-74
2023/10/05 01:50:44;;;;;;;10.48;2.00;;;;;;;19.43;53.49;102338.38;5011530;28;20096;-73
2023/10/05 01:53:18;;;;;;;8.90;2.15;;;;;;;19.79;52.37;102330.44;5010394;28;20038;-73
2023/10/05 01:55:45;;;;;;;8.20;2.22;;;;;;;19.84;52.90;102336.59;5011237;28;20102;-75
2023/10/05 01:58:22;;;;;;;8.88;2.40;;;;;;;19.92;51.66;102341.00;5011090;28;20034;-74
2023/10/05 02:00:48;;;;;;;8.48;2.00;;;;;;;20.06;52.03;102348.03;5011183;28;20121;-74
2023/10/05 02:03:17;;;;;;;10.63;2.70;;;;;;;19.32;53.64;102343.66;5010384;28;20041;-74
2023/10/05 02:05:44;;;;;;;8.20;2.10;;;;;;;19.64;53.75;102337.53;5008271;28;20042;-74
2023/10/05 02:08:09;;;;;;;9.38;2.20;;;;;;;19.93;53.64;102343.66;5010657;28;20037;-74
2023/10/05 02:10:40;;;;;;;9.10;2.33;;;;;;;19.76;53.89;102348.09;5010438;28;20038;-72
2023/10/05 02:13:08;;;;;;;9.63;2.28;;;;;;;20.20;53.23;102335.63;5008788;28;20040;-73
2023/10/05 02:15:40;;;;;;;10.52;2.17;;;;;;;19.91;53.22;102340.13;5010851;28;20514;-74
2023/10/05 02:18:24;;;;;;;8.70;2.28;;;;;;;19.72;54.41;102338.38;5010189;28;20495;-74
2023/10/05 02:20:57;;;;;;;10.88;2.40;;;;;;;19.65;55.13;102333.97;5010957;28;20403;-75
2023/10/05 02:23:25;;;;;;;10.77;2.28;;;;;;;19.80;54.76;102326.91;5010034;28;20130;-73
2023/10/05 02:26:10;;;;;;;6.25;1.73;;;;;;;19.51;55.05;102336.66;5010639;28;20064;-74
2023/10/05 02:28:45;;;;;;;5.97;2.15;;;;;;;19.88;54.14;102320.72;5010522;28;20117;-74
2023/10/05 02:31:13;;;;;;;8.32;2.13;;;;;;;19.72;54.73;102319.84;5010479;28;20126;-74
2023/10/05 02:33:40;;;;;;;12.07;2.50;;;;;;;19.43;55.54;102326.03;5010504;28;20077;-74
2023/10/05 02:36:11;;;;;;;9.07;1.98;;;;;;;19.31;55.89;102331.31;5010139;28;20085;-74
2023/10/05 02:38:49;;;;;;;8.25;2.10;;;;;;;19.46;55.23;102329.59;5010864;28;20034;-75
2023/10/05 02:41:24;;;;;;;10.68;2.15;;;;;;;19.48;55.35;102327.81;5009939;28;20092;-74
2023/10/05 02:43:53;;;;;;;10.75;2.45;;;;;;;19.29;55.37;102334.81;5009961;28;20380;-74
2023/10/05 02:46:20;;;;;;;8.25;2.47;;;;;;;19.36;55.41;102331.31;5010156;28;20057;-73
2023/10/05 02:48:46;;;;;;;11.80;2.10;;;;;;;19.29;55.27;102327.78;5010740;28;20057;-75
2023/10/05 02:51:13;;;;;;;9.40;2.47;;;;;;;18.91;55.42;102324.19;5008416;28;20607;-74
2023/10/05 02:53:42;;;;;;;9.43;2.00;;;;;;;19.12;54.81;102326.88;5009974;28;20383;-74
2023/10/05 02:56:20;;;;;;;10.05;2.40;;;;;;;19.20;55.13;102322.50;5009697;28;20049;-75
2023/10/05 02:58:48;;;;;;;8.15;1.85;;;;;;;19.18;55.23;102318.06;5010457;28;20034;-74
2023/10/05 03:01:16;;;;;;;10.40;2.20;;;;;;;19.17;55.65;102326.88;5008289;28;20042;-73
2023/10/05 03:03:44;;;;;;;10.80;2.55;;;;;;;19.47;55.14;102326.94;5011138;28;20108;-74
2023/10/05 03:06:10;;;;;;;7.80;2.25;;;;;;;19.37;55.85;102325.16;5010959;28;20034;-73
2023/10/05 03:08:44;;;;;;;12.55;2.58;;;;;;;19.20;55.99;102321.63;5009578;28;20038;-73
2023/10/05 03:11:09;;;;;;;9.98;2.20;;;;;;;19.09;56.28;102318.09;5018016;28;20028;-74
2023/10/05 03:13:38;;;;;;;7.95;2.33;;;;;;;18.93;56.98;102323.31;5033975;28;20026;-74
2023/10/05 03:16:16;;;;;;;9.50;2.40;;;;;;;19.35;56.08;102325.13;5034065;28;20032;-74
2023/10/05 03:18:49;;;;;;;10.88;2.40;;;;;;;19.16;56.81;102323.34;5039320;28;20038;-72
2023/10/05 03:21:14;;;;;;;10.48;2.10;;;;;;;19.21;56.97;102320.75;5038513;28;20089;-74
2023/10/05 03:23:44;;;;;;;7.53;2.40;;;;;;;19.15;57.54;102321.59;5038249;28;20053;-74
2023/10/05 03:26:11;;;;;;;9.73;2.30;;;;;;;19.26;57.44;102327.78;5027670;28;20092;-73
2023/10/05 03:28:41;;;;;;;8.35;2.15;;;;;;;18.93;58.02;102327.72;5014588;28;20033;-75
2023/10/05 03:31:31;;;;;;;10.73;2.30;;;;;;;19.12;57.53;102326.88;5012394;28;20038;-75
2023/10/05 03:33:59;;;;;;;11.32;2.28;;;;;;;19.26;57.62;102326.91;5011515;28;20061;-73
2023/10/05 03:36:26;;;;;;;12.27;2.78;;;;;;;18.95;58.71;102321.59;5003893;28;20041;-74
2023/10/05 03:39:06;;;;;;;12.68;2.50;;;;;;;19.14;58.23;102314.56;5013887;28;20072;-74
2023/10/05 03:41:38;;;;;;;11.93;2.28;;;;;;;19.25;57.89;102310.16;5014150;28;20042;-75
2023/10/05 03:44:15;;;;;;;10.60;2.65;;;;;;;19.21;58.26;102323.38;5013459;28;20041;-75
2023/10/05 03:46:47;;;;;;;9.40;2.20;;;;;;;19.29;57.75;102319.84;5012714;28;20073;-74
2023/10/05 03:49:21;;;;;;;10.82;2.45;;;;;;;19.31;57.81;102317.22;5013613;28;20117;-74
2023/10/05 03:51:50;;;;;;;8.10;2.30;;;;;;;19.00;58.75;102324.22;5014108;28;20026;-74
2023/10/05 03:54:24;;;;;;;7.88;2.25;;;;;;;18.95;59.21;102326.88;5013696;28;20037;-73
2023/10/05 03:56:50;;;;;;;;;;;;;;;19.01;59.00;102326.88;5014478;28;20041;-73
2023/10/05 03:59:19;;;;;;;9.95;2.25;;;;;;;19.08;58.42;102325.13;5011965;28;19913;-73
2023/10/05 04:01:51;;;;;;;12.30;3.70;;;;;;;19.09;58.39;102321.59;5012805;28;20069;-74
2023/10/05 04:04:16;;;;;;;8.05;2.33;;;;;;;19.10;58.24;102323.34;5015316;28;20030;-74
2023/10/05 04:06:45;;;;;;;11.77;2.63;;;;;;;19.12;58.31;102326.88;5015554;28;20092;-74
2023/10/05 04:09:15;;;;;;;10.18;2.30;;;;;;;18.95;58.71;102321.59;5015974;28;20108;-74
2023/10/05 04:11:44;;;;;;;11.30;2.22;;;;;;;18.80;59.06;102310.97;5016563;28;20034;-74
2023/10/05 04:14:09;;;;;;;12.85;2.53;;;;;;;19.10;58.13;102320.72;5016950;28;20069;-73
2023/10/05 04:16:34;;;;;;;11.70;2.08;;;;;;;19.30;57.41;102320.72;5014247;28;20030;-73
2023/10/05 04:19:11;;;;;;;12.90;2.20;;;;;;;19.00;58.68;102319.81;5012944;28;20125;-75
2023/10/05 04:21:40;;;;;;;8.43;2.10;;;;;;;19.17;58.15;102317.19;5011867;28;20595;-74
2023/10/05 04:24:06;;;;;;;7.30;1.90;;;;;;;18.98;58.28;102321.56;5011874;28;20042;-74
2023/10/05 04:26:37;;;;;;;11.15;2.05;;;;;;;18.99;58.33;102323.34;5013753;28;20042;-73
2023/10/05 04:29:09;;;;;;;7.95;2.17;;;;;;;18.85;58.84;102311.84;5011080;28;20041;-74
2023/10/05 04:31:36;;;;;;;9.35;1.80;;;;;;;18.86;58.81;102318.03;5012044;28;20156;-74
2023/10/05 04:34:18;;;;;;;9.27;1.95;;;;;;;19.24;57.36;102321.63;5012545;28;20037;-74
2023/10/05 04:36:43;;;;;;;10.65;2.55;;;;;;;19.01;58.31;102320.72;5012294;28;20081;-74
2023/10/05 04:39:11;;;;;;;8.40;2.20;;;;;;;19.09;57.94;102312.81;5011381;28;20521;-73
2023/10/05 04:41:49;;;;;;;7.78;2.00;;;;;;;19.08;58.05;102313.69;5012741;28;20038;-74
2023/10/05 04:44:17;;;;;;;9.40;1.98;;;;;;;18.88;58.45;102321.56;5012214;28;20073;-74
2023/10/05 04:46:49;;;;;;;6.75;2.30;;;;;;;19.05;57.67;102326.00;5010964;28;20041;-74
2023/10/05 04:49:24;;;;;;;10.20;1.83;;;;;;;18.99;57.92;102320.69;5011884;28;20576;-75
2023/10/05 04:51:51;;;;;;;9.07;2.13;;;;;;;19.23;57.32;102322.50;5011941;28;20129;-74
2023/10/05 04:54:26;;;;;;;10.88;2.00;;;;;;;19.01;58.64;102318.94;5011672;28;20126;-75
2023/10/05 04:57:07;;;;;;;8.68;1.90;;;;;;;19.08;58.43;102325.13;5012509;28;20547;-74
2023/10/05 05:03:01;;;;;;;10.35;2.20;;;;;;;19.05;59.30;102326.00;4974694;28;20408;-73
2023/10/05 05:05:40;;;;;;;9.80;1.88;;;;;;;18.92;60.02;102331.25;5009875;28;20030;-73
2023/10/05 05:08:14;;;;;;;8.68;2.00;;;;;;;18.87;60.75;102325.06;5009509;28;20120;-73
2023/10/05 05:10:43;;;;;;;9.13;2.28;;;;;;;18.86;60.87;102332.13;5011975;28;20034;-74
2023/10/05 05:13:08;;;;;;;9.00;1.90;;;;;;;19.11;59.45;102333.06;5011931;28;20041;-76
2023/10/05 05:15:38;;;;;;;5.03;1.92;;;;;;;18.85;60.49;102340.03;5013258;28;20041;-75
2023/10/05 05:18:14;;;;;;;11.73;1.98;;;;;;;18.92;60.43;102337.41;5011103;28;20038;-76
2023/10/05 05:20:41;;;;;;;12.52;2.38;;;;;;;18.58;61.65;102340.84;5013487;28;20486;-75
2023/10/05 05:23:07;;;;;;;10.43;1.98;;;;;;;18.78;60.63;102341.81;5010807;28;20033;-75
2023/10/05 05:25:32;;;;;;;11.98;2.40;;;;;;;18.54;61.30;102350.47;5013691;28;20034;-75
2023/10/05 05:28:01;;;;;;;9.95;1.80;;;;;;;18.97;59.83;102351.53;5000346;28;20042;-76
2023/10/05 05:30:26;;;;;;;6.10;1.88;;;;;;;19.21;59.10;102355.13;5012396;28;20128;-73
2023/10/05 05:32:55;;;;;;;9.73;1.80;;;;;;;19.21;58.80;102349.81;5013763;28;20042;-75
2023/10/05 05:35:20;;;;;;;7.78;2.00;;;;;;;19.14;59.08;102356.88;5013699;28;20510;-75
2023/10/05 05:37:46;;;;;;;10.57;2.08;;;;;;;19.12;59.52;102350.69;5013571;28;20116;-76
2023/10/05 05:40:14;;;;;;;9.45;2.25;;;;;;;18.94;60.40;102350.66;5012030;28;20133;-75
2023/10/05 05:42:40;;;;;;;9.55;2.10;;;;;;;18.94;60.38;102342.72;5010991;28;20420;-75
2023/10/05 05:45:16;;;;;;;10.25;2.28;;;;;;;19.05;59.93;102346.25;5014899;28;20045;-75
2023/10/05 05:47:43;;;;;;;12.45;2.38;;;;;;;19.03;60.27;102346.25;5016188;28;20037;-74
2023/10/05 05:50:15;;;;;;;14.63;2.85;;;;;;;18.70;61.54;102351.47;5014537;28;20033;-76
2023/10/05 05:52:41;;;;;;;8.95;2.17;;;;;;;18.87;60.60;102344.47;5013756;28;20099;-75
2023/10/05 05:55:10;;;;;;;8.70;1.90;;;;;;;18.50;61.76;102348.69;5012711;28;20129;-76
2023/10/05 05:57:38;;;;;;;7.70;2.00;;;;;;;19.10;59.88;102348.91;5013155;28;20049;-73
2023/10/05 06:00:12;;;;;;;10.52;1.95;;;;;;;19.30;59.26;102350.69;5010304;28;20041;-74
2023/10/05 06:02:41;;;;;;;12.35;2.00;;;;;;;19.24;59.59;102350.69;5010868;28;20038;-74
2023/10/05 06:05:25;;;;;;;10.95;2.45;;;;;;;19.15;60.32;102349.81;5009522;28;20031;-76
2023/10/05 06:07:50;;;;;;;8.70;2.20;;;;;;;19.42;59.08;102348.06;5011733;28;20041;-74
2023/10/05 06:10:16;;;;;;;6.00;2.03;;;;;;;19.50;58.79;102347.22;5009710;28;20030;-75
2023/10/05 06:12:43;;;;;;;7.70;2.17;;;;;;;19.43;58.96;102352.47;5011243;28;20467;-75
2023/10/05 06:15:13;;;;;;;11.38;2.53;;;;;;;19.24;59.65;102349.81;5009677;28;20036;-74
2023/10/05 06:17:45;;;;;;;8.32;2.17;;;;;;;19.32;59.71;102356.00;5009396;28;20399;-74
2023/10/05 06:20:14;;;;;;;11.00;2.42;;;;;;;19.36;59.80;102360.41;5011340;28;20556;-76
2023/10/05 06:22:44;;;;;;;12.00;2.65;;;;;;;19.17;60.67;102356.84;5012789;28;20045;-75
2023/10/05 06:25:17;;;;;;;8.10;2.10;;;;;;;19.39;59.88;102363.91;5013624;28;20037;-74
2023/10/05 06:27:50;;;;;;;8.87;2.10;;;;;;;19.43;60.08;102373.63;5012711;28;20033;-74
2023/10/05 06:30:17;;;;;;;11.18;2.30;;;;;;;19.56;59.53;102369.28;5011944;28;20297;-76
2023/10/05 06:32:43;;;;;;;8.70;2.00;;;;;;;19.48;60.02;102376.31;5012954;28;20372;-77
2023/10/05 06:35:09;;;;;;;7.53;2.22;;;;;;;19.55;60.63;102374.56;5011700;28;20088;-75
2023/10/05 06:37:41;;;;;;;14.52;2.50;;;;;;;19.44;61.12;102379.81;5013131;28;20064;-76
2023/10/05 06:40:12;;;;;;;10.65;2.30;;;;;;;19.20;62.18;102385.06;5011669;28;20049;-75
2023/10/05 06:42:49;;;;;;;11.73;2.08;;;;;;;19.37;61.58;102383.31;5009889;28;20044;-75
2023/10/05 06:45:15;;;;;;;9.98;2.30;;;;;;;19.31;62.03;102381.56;5011474;28;20038;-76
2023/10/05 06:47:42;;;;;;;6.85;1.90;;;;;;;19.47;61.72;102382.47;5011885;28;20159;-76
2023/10/05 06:50:09;;;;;;;9.77;2.17;;;;;;;19.63;60.80;102389.56;5009431;28;20049;-75
2023/10/05 06:52:36;;;;;;;10.75;2.33;;;;;;;19.48;61.84;102396.59;5010990;28;20042;-75
2023/10/05 06:55:07;;;;;;;9.85;2.00;;;;;;;19.50;61.34;102400.13;5010036;28;20045;-77
2023/10/05 06:57:45;;;;;;;8.05;2.00;;;;;;;19.43;61.45;102407.13;5010854;28;20060;-73
2023/10/05 07:00:21;;;;;;;9.30;2.13;;;;;;;19.74;60.30;102411.59;5011380;28;20522;-75
2023/10/05 07:02:54;;;;;;;9.52;2.10;;;;;;;19.80;60.07;102406.31;5010609;28;20092;-75
2023/10/05 07:05:20;;;;;;;9.50;2.13;;;;;;;19.76;60.31;102419.56;5010798;28;20119;-75
2023/10/05 07:07:48;;;;;;;11.73;2.20;;;;;;;19.41;61.35;102422.13;5011943;28;20030;-76
2023/10/05 07:10:15;;;;;;;10.00;2.10;;;;;;;19.54;61.10;102433.63;5010906;28;20049;-75
2023/10/05 07:12:47;;;;;;;7.45;2.03;;;;;;;19.74;60.55;102437.19;5015278;28;20029;-76
2023/10/05 07:15:14;;;;;;;7.88;2.30;;;;;;;19.47;60.52;102442.44;5009428;28;20030;-75
2023/10/05 07:17:40;;;;;;;10.65;2.00;;;;;;;19.60;60.73;102437.16;5011821;28;20045;-75
2023/10/05 07:20:13;;;;;;;14.57;2.30;;;;;;;20.12;59.41;102430.13;5009717;28;20041;-75
2023/10/05 07:22:40;;;;;;;7.50;2.20;;;;;;;19.98;60.12;102442.47;5010355;28;20121;-76
2023/10/05 07:25:06;;;;;;;9.55;2.30;;;;;;;20.08;59.69;102438.94;5010605;28;20140;-74
2023/10/05 07:27:31;;;;;;;9.48;2.40;;;;;;;20.22;58.93;102438.91;5010399;28;20042;-75
2023/10/05 07:29:57;;;;;;;9.18;1.90;;;;;;;20.29;59.09;102438.03;5010538;28;20034;-76
2023/10/05 07:32:22;;;;;;;9.35;2.35;;;;;;;20.33;59.03;102441.56;5011953;28;20037;-74
2023/10/05 07:34:47;;;;;;;8.05;2.00;;;;;;;20.02;59.01;102443.34;5011003;28;20049;-75
2023/10/05 07:37:13;;;;;;;14.68;2.10;;;;;;;20.31;58.37;102443.31;5012049;28;20108;-74
2023/10/05 07:39:42;;;;;;;9.93;2.10;;;;;;;20.25;58.29;102445.06;5012639;28;20038;-74
2023/10/05 07:42:10;;;;;;;11.25;2.33;;;;;;;20.37;58.73;102449.50;5010299;28;20045;-75
2023/10/05 07:44:43;;;;;;;8.00;2.28;;;;;;;20.25;58.67;102450.38;5011162;28;20551;-75
2023/10/05 07:47:11;;;;;;;8.18;1.92;;;;;;;20.28;59.57;102460.09;5009277;28;20046;-76
2023/10/05 07:49:37;;;;;;;10.15;2.55;;;;;;;20.67;58.34;102453.84;5008265;28;20044;-75
2023/10/05 07:52:07;;;;;;;8.48;2.20;;;;;;;20.82;58.83;102459.09;5008997;28;20073;-74
2023/10/05 07:54:34;;;;;;;9.25;2.55;;;;;;;20.87;58.35;102462.59;5009987;28;20030;-75
2023/10/05 07:57:03;;;;;;;8.70;2.08;;;;;;;20.72;57.92;102465.31;5009594;28;20058;-78
2023/10/05 07:59:32;;;;;;;13.25;2.40;;;;;;;20.56;58.98;102467.13;5011896;28;20099;-74
2023/10/05 08:01:57;;;;;;;9.85;2.30;;;;;;;20.78;58.53;102461.75;5007740;28;20042;-75
2023/10/05 08:04:23;;;;;;;13.85;2.40;;;;;;;20.95;58.93;102465.22;5009842;28;20032;-76
2023/10/05 08:06:49;;;;;;;11.40;2.17;;;;;;;21.06;58.17;102461.63;5013544;28;20080;-76
2023/10/05 08:09:15;;;;;;;9.68;2.08;;;;;;;21.13;57.89;102461.59;5014914;28;20070;-76
2023/10/05 08:11:44;;;;;;;12.40;2.35;;;;;;;21.32;57.22;102465.97;5015982;28;20373;-76
2023/10/05 08:14:20;;;;;;;8.65;2.00;;;;;;;21.27;57.20;102467.75;5015510;28;20411;-74
2023/10/05 08:16:48;;;;;;;13.18;2.22;;;;;;;21.19;57.59;102478.41;5017073;28;20041;-77
2023/10/05 08:19:15;;;;;;;10.73;2.20;;;;;;;21.14;57.53;102472.22;5015716;28;20049;-75
2023/10/05 08:21:47;;;;;;;10.85;2.38;;;;;;;21.05;58.50;102475.78;5014443;28;20061;-75
2023/10/05 08:24:13;;;;;;;9.23;2.22;;;;;;;20.87;58.84;102497.06;5011575;28;20042;-77
2023/10/05 08:26:39;;;;;;;7.90;1.88;;;;;;;21.56;57.50;102499.44;5033264;28;20040;-76
2023/10/05 08:29:11;;;;;;;13.73;2.42;;;;;;;21.06;58.63;102497.88;5032140;28;20041;-74
2023/10/05 08:31:37;;;;;;;10.85;2.28;;;;;;;21.01;58.87;102504.97;5032425;28;20625;-75
2023/10/05 08:34:09;;;;;;;13.75;2.35;;;;;;;20.75;59.63;102501.53;5030187;28;20045;-74
2023/10/05 08:36:38;;;;;;;9.63;2.30;;;;;;;21.05;59.27;102504.06;5022192;28;20029;-76
2023/10/05 08:39:08;;;;;;;7.97;2.40;;;;;;;20.90;59.23;102512.97;5031271;28;20037;-74
2023/10/05 08:41:39;;;;;;;8.98;2.70;;;;;;;20.87;59.39;102512.97;5031658;28;20034;-73
2023/10/05 08:44:11;;;;;;;13.27;2.83;;;;;;;20.88;59.29;102508.56;5031130;28;20430;-74
2023/10/05 08:46:42;;;;;;;12.02;2.10;;;;;;;20.46;61.11;102515.72;5023506;28;20048;-73
2023/10/05 08:49:11;;;;;;;13.65;2.42;;;;;;;20.72;60.90;102514.78;5029810;28;20062;-75
2023/10/05 08:51:45;;;;;;;13.52;2.40;;;;;;;20.76;60.57;102522.72;5031524;28;20032;-74
2023/10/05 08:54:14;;;;;;;10.75;2.45;;;;;;;20.71;60.10;102532.47;5029216;28;20461;-75
2023/10/05 08:56:47;;;;;;;10.27;2.50;;;;;;;20.83;59.62;102540.38;5029999;28;20410;-74
2023/10/05 08:59:13;;;;;;;9.50;2.43;;;;;;;20.42;60.86;102544.88;5031255;28;20499;-74
2023/10/05 09:01:45;;;;;;;9.88;2.40;;;;;;;20.97;59.48;102550.97;5030636;28;20304;-73
2023/10/05 09:07:10;;;;;;;11.70;2.80;;;;;;;20.92;59.94;102558.06;5031750;28;20030;-74
2023/10/05 09:09:37;;;;;;;8.10;2.28;;;;;;;21.12;59.13;102545.59;5031156;28;20064;-75
2023/10/05 09:12:37;;;;;;;9.52;2.10;;;;;;;21.09;59.09;102545.63;5029439;28;20406;-73
2023/10/05 09:15:14;;;;;;;8.23;2.33;;;;;;;20.98;59.47;102548.28;4999004;28;20034;-74
2023/10/05 09:17:58;;;;;;;11.43;2.50;;;;;;;21.11;59.68;102549.13;5030187;28;20379;-74
2023/10/05 09:20:23;;;;;;;11.50;2.70;;;;;;;21.15;59.37;102544.72;5029328;28;20122;-74
2023/10/05 09:22:54;;;;;;;7.95;2.05;;;;;;;21.27;57.54;102547.34;5031092;28;20138;-73
2023/10/05 09:25:27;;;;;;;15.10;2.60;;;;;;;20.89;59.13;102550.09;5018482;28;20034;-76
2023/10/05 09:27:59;;;;;;;11.98;2.30;;;;;;;21.11;58.50;102551.78;5016887;28;20064;-75
2023/10/05 09:30:31;;;;;;;11.00;2.50;;;;;;;21.36;59.39;102550.81;5030085;28;20033;-75
2023/10/05 09:33:06;;;;;;;15.07;2.83;;;;;;;21.06;58.98;102549.16;5030583;28;20418;-74
2023/10/05 09:35:33;;;;;;;9.20;2.38;;;;;;;20.88;60.85;102566.88;5030583;28;20037;-75
2023/10/05 09:37:58;;;;;;;10.35;2.38;;;;;;;21.12;59.70;102557.97;5030613;28;20585;-75
2023/10/05 09:40:28;;;;;;;9.35;2.28;;;;;;;21.28;59.85;102559.72;5035059;22;20486;-48
2023/10/05 09:42:55;;;;;;;11.32;2.40;;;;;;;21.62;58.50;102561.31;5021317;28;20053;-44
2023/10/05 09:45:23;;;;;;;13.00;3.03;;;;;;;21.58;57.30;102559.56;5030083;28;20036;-44
2023/10/05 09:47:51;;;;;;;9.45;2.53;;;;;;;21.52;58.06;102556.97;5010861;28;20500;-44
2023/10/05 09:50:21;;;;;;;8.00;2.30;;;;;;;21.66;58.48;102568.34;5008809;28;20037;-45
2023/10/05 09:52:48;;;;;;;12.13;2.45;;;;;;;21.88;57.57;102571.78;5010345;28;20083;-46
2023/10/05 09:55:17;;;;;;;10.32;2.30;;;;;;;22.07;55.92;102572.56;5010160;28;20034;-45
2023/10/05 09:57:52;;;;;;;9.88;2.58;;;;;;;21.65;58.52;102560.44;5010597;28;20168;-44
2023/10/05 10:00:47;;;;;;;9.77;2.28;;;;;;;21.99;57.40;102569.09;5009409;28;20030;-46
2023/10/05 10:03:17;;;;;;;8.95;2.53;;;;;;;22.13;56.77;102565.44;5009785;28;20504;-45
2023/10/05 10:05:51;;;;;;;9.68;2.30;;;;;;;22.18;56.16;102568.94;5010544;28;20034;-50
2023/10/05 10:08:21;;;;;;;11.57;2.40;;;;;;;22.29;55.36;102568.84;5010438;28;20026;-43
2023/10/05 10:11:18;;;;;;;9.40;2.30;;;;;;;22.00;55.95;102570.84;5010856;28;20076;-44
2023/10/05 10:13:50;;;;;;;8.05;2.30;;;;;;;21.81;57.53;102570.06;5010181;28;20113;-46
2023/10/05 10:16:23;;;;;;;8.23;2.30;;;;;;;21.95;57.32;102572.63;5010341;28;20036;-44
2023/10/05 10:19:08;;;;;;;8.75;2.40;;;;;;;22.03;56.44;102569.03;5010719;28;20088;-48
2023/10/05 10:21:35;;;;;;;8.23;2.40;;;;;;;22.08;55.65;102567.22;5010276;28;20037;-45
2023/10/05 10:24:06;;;;;;;11.05;1.98;;;;;;;21.80;56.87;102558.56;5010162;28;20407;-43
2023/10/05 10:26:39;;;;;;;11.00;2.20;;;;;;;21.54;58.18;102564.88;5009357;28;20033;-48
2023/10/05 10:29:10;;;;;;;10.52;2.55;;;;;;;21.72;58.76;102570.09;5009512;28;20518;-49
2023/10/05 10:31:42;;;;;;;11.88;2.40;;;;;;;21.65;57.36;102563.09;5010164;28;20076;-44
2023/10/05 10:34:28;;;;;;;6.60;2.00;;;;;;;22.03;56.35;102563.72;5008465;28;20060;-49
2023/10/05 10:36:57;;;;;;;7.40;2.40;;;;;;;21.96;57.27;102566.44;5010154;28;20042;-45
2023/10/05 10:39:24;;;;;;;9.32;2.10;;;;;;;21.85;56.21;102564.72;5010046;28;20125;-44
2023/10/05 10:42:12;;;;;;;9.95;2.40;;;;;;;21.76;56.54;102558.59;5010121;28;20100;-45
2023/10/05 10:44:57;;;;;;;9.25;2.30;;;;;;;22.54;54.73;102561.53;5008914;28;20646;-44
2023/10/05 10:47:23;;;;;;;10.07;2.10;;;;;;;22.66;55.31;102564.97;5008838;28;20037;-45
2023/10/05 10:50:29;;;;;;;9.27;2.25;;;;;;;22.29;55.64;102560.00;5010036;28;20037;-45
2023/10/05 10:52:56;;;;;;;9.27;2.10;;;;;;;22.23;56.66;102559.16;5001353;28;20172;-43
2023/10/05 10:55:30;;;;;;;11.30;2.25;;;;;;;22.54;54.35;102562.44;5010013;28;20041;-45
2023/10/05 10:57:57;;;;;;;;;;;;;;;22.35;54.17;102573.22;5010203;28;20038;-44
2023/10/05 11:03:11;;;;;;;10.27;2.20;;;;;;;22.00;54.19;102573.50;5009173;28;20038;-44
2023/10/05 11:05:40;;;;;;;8.82;2.00;;;;;;;22.06;54.42;102568.16;5009797;28;20149;-45
2023/10/05 11:08:12;;;;;;;10.15;2.55;;;;;;;22.08;54.17;102569.88;5007926;28;20046;-48
2023/10/05 11:10:40;;;;;;;7.07;2.28;;;;;;;21.97;55.30;102574.41;5009684;28;20058;-50
2023/10/05 11:13:18;;;;;;;6.43;2.20;;;;;;;22.23;53.62;102564.47;5009031;28;20037;-47
2023/10/05 11:16:00;;;;;;;6.60;2.28;;;;;;;22.37;55.00;102561.69;5009539;28;20076;-44
2023/10/05 11:18:35;;;;;;;9.15;2.40;;;;;;;21.97;55.37;102574.41;5009363;28;20103;-44
2023/10/05 11:21:16;;;;;;;9.00;2.33;;;;;;;22.76;53.09;102572.88;5009028;28;20099;-44
2023/10/05 11:23:45;;;;;;;6.70;2.13;;;;;;;22.77;52.88;102572.84;5009481;28;20026;-46
2023/10/05 11:26:17;;;;;;;9.20;2.33;;;;;;;22.88;51.90;102575.41;5008676;28;20030;-44
2023/10/05 11:28:49;;;;;;;6.63;2.00;;;;;;;23.18;51.77;102572.38;5009992;28;20026;-48
2023/10/05 11:31:21;;;;;;;8.07;2.17;;;;;;;22.83;51.09;102566.59;5009172;28;20030;-45
2023/10/05 11:33:47;;;;;;;6.80;2.00;;;;;;;22.62;51.94;102571.22;5010874;28;20076;-45
2023/10/05 11:36:21;;;;;;;10.05;2.25;;;;;;;22.84;52.26;102568.38;5012138;28;20030;-51
2023/10/05 11:38:57;;;;;;;11.23;2.40;;;;;;;23.51;50.37;102563.16;5013652;28;20022;-45
2023/10/05 11:41:28;;;;;;;8.07;2.20;;;;;;;23.13;48.48;102560.94;5012785;28;20049;-46
2023/10/05 11:43:55;;;;;;;7.45;2.20;;;;;;;23.52;48.63;102561.38;5013196;28;20575;-46
2023/10/05 11:46:42;;;;;;;9.07;2.38;;;;;;;23.55;50.08;102567.50;5012787;28;20096;-46
2023/10/05 11:49:10;;;;;;;9.43;2.08;;;;;;;23.55;49.13;102571.94;5012832;28;20033;-48
2023/10/05 11:51:41;;;;;;;6.88;2.28;;;;;;;23.38;49.55;102574.81;5012128;28;20181;-42